sensor_id;sensor_type;location;lat;lon;timestamp;P1;durP1;ratioP1;P2;durP2;ratioP2
25191;SDS011;13143;50.924;5.320;2023-01-19T00:00:27;18.05;;;12.32;;
25191;SDS011;13143;50.924;5.320;2023-01-19T00:02:52;20.80;;;13.77;;
25191;SDS011;13143;50.924;5.320;2023-01-19T00:05:19;18.63;;;13.25;;
25191;SDS011;13143;50.924;5.320;2023-01-19T00:07:44;21.30;;;13.13;;
25191;SDS011;13143;50.924;5.320;2023-01-19T00:10:10;21.20;;;12.95;;
25191;SDS011;13143;50.924;5.320;2023-01-19T00:12:36;20.20;;;12.32;;
25191;SDS011;13143;50.924;5.320;2023-01-19T00:15:02;24.20;;;13.63;;
25191;SDS011;13143;50.924;5.320;2023-01-19T00:17:28;19.45;;;12.90;;
25191;SDS011;13143;50.924;5.320;2023-01-19T00:19:54;20.35;;;13.52;;
25191;SDS011;13143;50.924;5.320;2023-01-19T00:22:19;20.33;;;13.13;;
25191;SDS011;13143;50.924;5.320;2023-01-19T00:24:45;24.08;;;12.80;;
25191;SDS011;13143;50.924;5.320;2023-01-19T00:27:11;18.33;;;12.35;;
25191;SDS011;13143;50.924;5.320;2023-01-19T00:29:36;19.00;;;12.40;;
25191;SDS011;13143;50.924;5.320;2023-01-19T00:32:02;20.98;;;13.40;;
25191;SDS011;13143;50.924;5.320;2023-01-19T00:34:29;20.95;;;13.07;;
25191;SDS011;13143;50.924;5.320;2023-01-19T00:37:03;18.10;;;12.52;;
25191;SDS011;13143;50.924;5.320;2023-01-19T00:39:30;21.02;;;13.27;;
25191;SDS011;13143;50.924;5.320;2023-01-19T00:41:56;22.40;;;12.80;;
25191;SDS011;13143;50.924;5.320;2023-01-19T00:44:40;23.33;;;12.82;;
25191;SDS011;13143;50.924;5.320;2023-01-19T00:47:06;20.88;;;12.93;;
25191;SDS011;13143;50.924;5.320;2023-01-19T00:49:31;23.35;;;12.63;;
25191;SDS011;13143;50.924;5.320;2023-01-19T00:51:57;20.80;;;13.57;;
25191;SDS011;13143;50.924;5.320;2023-01-19T00:54:23;23.60;;;13.65;;
25191;SDS011;13143;50.924;5.320;2023-01-19T00:56:48;18.55;;;12.90;;
25191;SDS011;13143;50.924;5.320;2023-01-19T00:59:14;20.05;;;12.55;;
25191;SDS011;13143;50.924;5.320;2023-01-19T01:01:39;20.42;;;13.02;;
25191;SDS011;13143;50.924;5.320;2023-01-19T01:04:05;23.35;;;14.15;;
25191;SDS011;13143;50.924;5.320;2023-01-19T01:06:31;24.60;;;14.18;;
25191;SDS011;13143;50.924;5.320;2023-01-19T01:08:56;22.17;;;13.52;;
25191;SDS011;13143;50.924;5.320;2023-01-19T01:11:22;23.20;;;14.32;;
25191;SDS011;13143;50.924;5.320;2023-01-19T01:13:48;19.90;;;13.73;;
25191;SDS011;13143;50.924;5.320;2023-01-19T01:16:14;21.77;;;13.55;;
25191;SDS011;13143;50.924;5.320;2023-01-19T01:18:41;22.30;;;13.88;;
25191;SDS011;13143;50.924;5.320;2023-01-19T01:21:08;24.30;;;14.00;;
25191;SDS011;13143;50.924;5.320;2023-01-19T01:23:36;22.75;;;14.10;;
25191;SDS011;13143;50.924;5.320;2023-01-19T01:26:02;21.58;;;13.93;;
25191;SDS011;13143;50.924;5.320;2023-01-19T01:28:28;24.27;;;14.50;;
25191;SDS011;13143;50.924;5.320;2023-01-19T01:30:54;28.30;;;15.23;;
25191;SDS011;13143;50.924;5.320;2023-01-19T01:33:21;29.00;;;15.77;;
25191;SDS011;13143;50.924;5.320;2023-01-19T01:35:50;29.77;;;14.82;;
25191;SDS011;13143;50.924;5.320;2023-01-19T01:38:16;26.75;;;16.20;;
25191;SDS011;13143;50.924;5.320;2023-01-19T01:40:42;24.88;;;14.65;;
25191;SDS011;13143;50.924;5.320;2023-01-19T01:43:15;28.88;;;15.25;;
25191;SDS011;13143;50.924;5.320;2023-01-19T01:45:42;31.50;;;16.42;;
25191;SDS011;13143;50.924;5.320;2023-01-19T01:48:24;30.05;;;16.42;;
25191;SDS011;13143;50.924;5.320;2023-01-19T01:51:05;28.83;;;15.68;;
25191;SDS011;13143;50.924;5.320;2023-01-19T01:53:48;28.77;;;15.80;;
25191;SDS011;13143;50.924;5.320;2023-01-19T01:56:25;29.13;;;16.02;;
25191;SDS011;13143;50.924;5.320;2023-01-19T01:58:57;30.95;;;16.48;;
25191;SDS011;13143;50.924;5.320;2023-01-19T02:01:25;34.75;;;16.00;;
25191;SDS011;13143;50.924;5.320;2023-01-19T02:04:09;27.90;;;15.95;;
25191;SDS011;13143;50.924;5.320;2023-01-19T02:06:35;24.92;;;15.93;;
25191;SDS011;13143;50.924;5.320;2023-01-19T02:09:19;27.10;;;15.70;;
25191;SDS011;13143;50.924;5.320;2023-01-19T02:12:06;27.30;;;16.10;;
25191;SDS011;13143;50.924;5.320;2023-01-19T02:14:51;26.38;;;15.65;;
25191;SDS011;13143;50.924;5.320;2023-01-19T02:17:16;29.65;;;15.77;;
25191;SDS011;13143;50.924;5.320;2023-01-19T02:19:42;30.77;;;16.35;;
25191;SDS011;13143;50.924;5.320;2023-01-19T02:22:13;37.55;;;16.73;;
25191;SDS011;13143;50.924;5.320;2023-01-19T02:24:43;28.52;;;16.95;;
25191;SDS011;13143;50.924;5.320;2023-01-19T02:27:10;29.55;;;16.10;;
25191;SDS011;13143;50.924;5.320;2023-01-19T02:29:36;28.52;;;17.15;;
25191;SDS011;13143;50.924;5.320;2023-01-19T02:32:03;28.05;;;16.23;;
25191;SDS011;13143;50.924;5.320;2023-01-19T02:34:29;28.52;;;17.17;;
25191;SDS011;13143;50.924;5.320;2023-01-19T02:36:57;27.75;;;16.75;;
25191;SDS011;13143;50.924;5.320;2023-01-19T02:39:48;30.30;;;16.77;;
25191;SDS011;13143;50.924;5.320;2023-01-19T02:44:51;33.03;;;17.88;;
25191;SDS011;13143;50.924;5.320;2023-01-19T02:47:19;32.05;;;17.70;;
25191;SDS011;13143;50.924;5.320;2023-01-19T02:49:53;32.42;;;18.00;;
25191;SDS011;13143;50.924;5.320;2023-01-19T02:52:20;30.83;;;17.38;;
25191;SDS011;13143;50.924;5.320;2023-01-19T02:54:56;34.80;;;16.67;;
25191;SDS011;13143;50.924;5.320;2023-01-19T02:57:50;32.08;;;17.25;;
25191;SDS011;13143;50.924;5.320;2023-01-19T03:06:07;32.27;;;16.87;;
25191;SDS011;13143;50.924;5.320;2023-01-19T03:08:57;27.35;;;16.80;;
25191;SDS011;13143;50.924;5.320;2023-01-19T03:11:42;29.83;;;16.10;;
25191;SDS011;13143;50.924;5.320;2023-01-19T03:14:15;33.25;;;18.17;;
25191;SDS011;13143;50.924;5.320;2023-01-19T03:16:50;36.83;;;17.40;;
25191;SDS011;13143;50.924;5.320;2023-01-19T03:19:41;36.80;;;18.63;;
25191;SDS011;13143;50.924;5.320;2023-01-19T03:22:11;33.03;;;17.58;;
25191;SDS011;13143;50.924;5.320;2023-01-19T03:24:42;31.73;;;16.90;;
25191;SDS011;13143;50.924;5.320;2023-01-19T03:27:11;31.55;;;16.38;;
25191;SDS011;13143;50.924;5.320;2023-01-19T03:29:43;34.08;;;17.48;;
25191;SDS011;13143;50.924;5.320;2023-01-19T03:32:15;34.63;;;16.52;;
25191;SDS011;13143;50.924;5.320;2023-01-19T03:34:43;34.58;;;17.63;;
25191;SDS011;13143;50.924;5.320;2023-01-19T03:37:10;29.52;;;16.73;;
25191;SDS011;13143;50.924;5.320;2023-01-19T03:39:40;31.33;;;16.52;;
25191;SDS011;13143;50.924;5.320;2023-01-19T03:42:08;36.38;;;16.92;;
25191;SDS011;13143;50.924;5.320;2023-01-19T03:44:38;37.58;;;17.33;;
25191;SDS011;13143;50.924;5.320;2023-01-19T03:47:05;34.60;;;17.20;;
25191;SDS011;13143;50.924;5.320;2023-01-19T03:49:33;30.65;;;17.45;;
25191;SDS011;13143;50.924;5.320;2023-01-19T03:52:00;34.45;;;17.75;;
25191;SDS011;13143;50.924;5.320;2023-01-19T03:54:26;34.22;;;16.95;;
25191;SDS011;13143;50.924;5.320;2023-01-19T03:56:52;38.92;;;18.20;;
25191;SDS011;13143;50.924;5.320;2023-01-19T03:59:18;36.50;;;17.42;;
25191;SDS011;13143;50.924;5.320;2023-01-19T04:01:44;35.67;;;16.33;;
25191;SDS011;13143;50.924;5.320;2023-01-19T04:04:10;46.30;;;18.25;;
25191;SDS011;13143;50.924;5.320;2023-01-19T04:06:37;37.47;;;19.17;;
25191;SDS011;13143;50.924;5.320;2023-01-19T04:09:03;36.33;;;17.20;;
25191;SDS011;13143;50.924;5.320;2023-01-19T04:11:29;40.45;;;18.00;;
25191;SDS011;13143;50.924;5.320;2023-01-19T04:13:55;37.65;;;18.30;;
25191;SDS011;13143;50.924;5.320;2023-01-19T04:16:21;36.22;;;17.83;;
25191;SDS011;13143;50.924;5.320;2023-01-19T04:18:47;39.65;;;18.20;;
25191;SDS011;13143;50.924;5.320;2023-01-19T04:21:14;36.42;;;18.42;;
25191;SDS011;13143;50.924;5.320;2023-01-19T04:23:40;35.42;;;18.27;;
25191;SDS011;13143;50.924;5.320;2023-01-19T04:26:06;32.42;;;18.02;;
25191;SDS011;13143;50.924;5.320;2023-01-19T04:28:33;34.30;;;19.00;;
25191;SDS011;13143;50.924;5.320;2023-01-19T04:31:00;39.42;;;19.27;;
25191;SDS011;13143;50.924;5.320;2023-01-19T04:33:27;37.63;;;19.25;;
25191;SDS011;13143;50.924;5.320;2023-01-19T04:35:52;37.83;;;18.27;;
25191;SDS011;13143;50.924;5.320;2023-01-19T04:38:20;39.55;;;18.85;;
25191;SDS011;13143;50.924;5.320;2023-01-19T04:40:49;38.03;;;18.60;;
25191;SDS011;13143;50.924;5.320;2023-01-19T04:43:16;43.28;;;18.58;;
25191;SDS011;13143;50.924;5.320;2023-01-19T04:45:43;39.95;;;18.80;;
25191;SDS011;13143;50.924;5.320;2023-01-19T04:48:10;38.17;;;18.55;;
25191;SDS011;13143;50.924;5.320;2023-01-19T04:50:36;38.30;;;17.38;;
25191;SDS011;13143;50.924;5.320;2023-01-19T04:53:02;37.92;;;18.83;;
25191;SDS011;13143;50.924;5.320;2023-01-19T04:55:28;36.25;;;17.98;;
25191;SDS011;13143;50.924;5.320;2023-01-19T04:57:54;37.13;;;18.60;;
25191;SDS011;13143;50.924;5.320;2023-01-19T05:00:20;46.47;;;19.65;;
25191;SDS011;13143;50.924;5.320;2023-01-19T05:02:46;34.20;;;18.35;;
25191;SDS011;13143;50.924;5.320;2023-01-19T05:05:12;39.03;;;17.98;;
25191;SDS011;13143;50.924;5.320;2023-01-19T05:07:37;39.72;;;18.55;;
25191;SDS011;13143;50.924;5.320;2023-01-19T05:10:04;39.97;;;18.27;;
25191;SDS011;13143;50.924;5.320;2023-01-19T05:12:31;36.55;;;18.73;;
25191;SDS011;13143;50.924;5.320;2023-01-19T05:14:57;36.35;;;18.42;;
25191;SDS011;13143;50.924;5.320;2023-01-19T05:17:23;41.72;;;17.98;;
25191;SDS011;13143;50.924;5.320;2023-01-19T05:19:49;42.58;;;17.98;;
25191;SDS011;13143;50.924;5.320;2023-01-19T05:22:14;42.10;;;19.90;;
25191;SDS011;13143;50.924;5.320;2023-01-19T05:24:41;44.50;;;19.10;;
25191;SDS011;13143;50.924;5.320;2023-01-19T05:27:07;35.47;;;17.10;;
25191;SDS011;13143;50.924;5.320;2023-01-19T05:29:33;40.40;;;19.02;;
25191;SDS011;13143;50.924;5.320;2023-01-19T05:31:58;41.33;;;18.95;;
25191;SDS011;13143;50.924;5.320;2023-01-19T05:34:25;46.28;;;18.77;;
25191;SDS011;13143;50.924;5.320;2023-01-19T05:36:50;41.55;;;18.77;;
25191;SDS011;13143;50.924;5.320;2023-01-19T05:39:16;41.72;;;19.30;;
25191;SDS011;13143;50.924;5.320;2023-01-19T05:41:42;38.55;;;18.90;;
25191;SDS011;13143;50.924;5.320;2023-01-19T05:44:09;42.05;;;18.13;;
25191;SDS011;13143;50.924;5.320;2023-01-19T05:46:35;46.22;;;18.92;;
25191;SDS011;13143;50.924;5.320;2023-01-19T05:49:01;38.40;;;18.73;;
25191;SDS011;13143;50.924;5.320;2023-01-19T05:51:29;37.15;;;18.05;;
25191;SDS011;13143;50.924;5.320;2023-01-19T05:53:59;39.80;;;19.17;;
25191;SDS011;13143;50.924;5.320;2023-01-19T05:56:25;47.45;;;19.05;;
25191;SDS011;13143;50.924;5.320;2023-01-19T05:58:51;41.00;;;19.30;;
25191;SDS011;13143;50.924;5.320;2023-01-19T06:01:17;37.83;;;19.40;;
25191;SDS011;13143;50.924;5.320;2023-01-19T06:03:42;41.22;;;19.20;;
25191;SDS011;13143;50.924;5.320;2023-01-19T06:06:08;39.60;;;19.48;;
25191;SDS011;13143;50.924;5.320;2023-01-19T06:08:33;43.08;;;19.73;;
25191;SDS011;13143;50.924;5.320;2023-01-19T06:10:59;41.88;;;20.48;;
25191;SDS011;13143;50.924;5.320;2023-01-19T06:13:25;37.58;;;19.13;;
25191;SDS011;13143;50.924;5.320;2023-01-19T06:15:57;50.05;;;19.08;;
25191;SDS011;13143;50.924;5.320;2023-01-19T06:18:24;46.42;;;19.83;;
25191;SDS011;13143;50.924;5.320;2023-01-19T06:20:50;42.22;;;20.55;;
25191;SDS011;13143;50.924;5.320;2023-01-19T06:23:16;39.10;;;20.48;;
25191;SDS011;13143;50.924;5.320;2023-01-19T06:25:42;46.95;;;19.90;;
25191;SDS011;13143;50.924;5.320;2023-01-19T06:28:07;43.72;;;19.58;;
25191;SDS011;13143;50.924;5.320;2023-01-19T06:30:33;44.47;;;20.50;;
25191;SDS011;13143;50.924;5.320;2023-01-19T06:32:59;48.75;;;20.70;;
25191;SDS011;13143;50.924;5.320;2023-01-19T06:35:24;39.85;;;19.00;;
25191;SDS011;13143;50.924;5.320;2023-01-19T06:37:51;42.40;;;19.95;;
25191;SDS011;13143;50.924;5.320;2023-01-19T06:40:16;43.90;;;20.48;;
25191;SDS011;13143;50.924;5.320;2023-01-19T06:42:42;48.58;;;19.65;;
25191;SDS011;13143;50.924;5.320;2023-01-19T06:45:08;39.30;;;20.05;;
25191;SDS011;13143;50.924;5.320;2023-01-19T06:47:34;48.88;;;22.33;;
25191;SDS011;13143;50.924;5.320;2023-01-19T06:50:00;45.72;;;20.65;;
25191;SDS011;13143;50.924;5.320;2023-01-19T06:52:26;45.78;;;20.77;;
25191;SDS011;13143;50.924;5.320;2023-01-19T06:54:52;40.05;;;20.83;;
25191;SDS011;13143;50.924;5.320;2023-01-19T06:57:18;43.20;;;21.17;;
25191;SDS011;13143;50.924;5.320;2023-01-19T06:59:43;42.25;;;21.45;;
25191;SDS011;13143;50.924;5.320;2023-01-19T07:02:09;46.75;;;19.35;;
25191;SDS011;13143;50.924;5.320;2023-01-19T07:04:42;44.88;;;21.88;;
25191;SDS011;13143;50.924;5.320;2023-01-19T07:07:07;37.78;;;20.20;;
25191;SDS011;13143;50.924;5.320;2023-01-19T07:09:33;44.97;;;21.48;;
25191;SDS011;13143;50.924;5.320;2023-01-19T07:11:59;46.13;;;20.77;;
25191;SDS011;13143;50.924;5.320;2023-01-19T07:14:24;43.70;;;21.40;;
25191;SDS011;13143;50.924;5.320;2023-01-19T07:16:54;48.00;;;21.50;;
25191;SDS011;13143;50.924;5.320;2023-01-19T07:19:20;44.35;;;21.17;;
25191;SDS011;13143;50.924;5.320;2023-01-19T07:21:46;47.35;;;21.00;;
25191;SDS011;13143;50.924;5.320;2023-01-19T07:24:11;39.22;;;21.50;;
25191;SDS011;13143;50.924;5.320;2023-01-19T07:26:37;43.95;;;20.73;;
25191;SDS011;13143;50.924;5.320;2023-01-19T07:29:02;46.30;;;21.25;;
25191;SDS011;13143;50.924;5.320;2023-01-19T07:31:28;39.25;;;20.65;;
25191;SDS011;13143;50.924;5.320;2023-01-19T07:33:54;39.38;;;21.30;;
25191;SDS011;13143;50.924;5.320;2023-01-19T07:36:19;43.40;;;20.50;;
25191;SDS011;13143;50.924;5.320;2023-01-19T07:38:45;52.40;;;21.90;;
25191;SDS011;13143;50.924;5.320;2023-01-19T07:41:11;43.95;;;19.73;;
25191;SDS011;13143;50.924;5.320;2023-01-19T07:43:36;44.15;;;20.75;;
25191;SDS011;13143;50.924;5.320;2023-01-19T07:46:03;44.60;;;20.25;;
25191;SDS011;13143;50.924;5.320;2023-01-19T07:48:30;43.58;;;20.80;;
25191;SDS011;13143;50.924;5.320;2023-01-19T07:51:02;45.78;;;20.63;;
25191;SDS011;13143;50.924;5.320;2023-01-19T07:53:29;46.35;;;20.45;;
25191;SDS011;13143;50.924;5.320;2023-01-19T07:55:55;45.72;;;20.40;;
25191;SDS011;13143;50.924;5.320;2023-01-19T07:58:25;48.85;;;21.08;;
25191;SDS011;13143;50.924;5.320;2023-01-19T08:00:51;47.10;;;20.13;;
25191;SDS011;13143;50.924;5.320;2023-01-19T08:03:17;43.85;;;20.77;;
25191;SDS011;13143;50.924;5.320;2023-01-19T08:05:43;51.05;;;20.98;;
25191;SDS011;13143;50.924;5.320;2023-01-19T08:08:09;42.67;;;21.27;;
25191;SDS011;13143;50.924;5.320;2023-01-19T08:10:36;45.53;;;20.77;;
25191;SDS011;13143;50.924;5.320;2023-01-19T08:13:02;42.03;;;20.20;;
25191;SDS011;13143;50.924;5.320;2023-01-19T08:15:27;45.17;;;21.77;;
25191;SDS011;13143;50.924;5.320;2023-01-19T08:17:56;48.83;;;21.80;;
25191;SDS011;13143;50.924;5.320;2023-01-19T08:20:26;39.00;;;19.77;;
25191;SDS011;13143;50.924;5.320;2023-01-19T08:22:53;50.78;;;21.88;;
25191;SDS011;13143;50.924;5.320;2023-01-19T08:25:31;45.00;;;21.60;;
25191;SDS011;13143;50.924;5.320;2023-01-19T08:27:57;47.67;;;20.98;;
25191;SDS011;13143;50.924;5.320;2023-01-19T08:30:23;46.33;;;20.92;;
25191;SDS011;13143;50.924;5.320;2023-01-19T08:32:51;42.72;;;21.77;;
25191;SDS011;13143;50.924;5.320;2023-01-19T08:35:39;43.30;;;20.80;;
25191;SDS011;13143;50.924;5.320;2023-01-19T08:38:06;50.13;;;22.05;;
25191;SDS011;13143;50.924;5.320;2023-01-19T08:40:34;50.50;;;21.35;;
25191;SDS011;13143;50.924;5.320;2023-01-19T08:43:03;50.80;;;21.83;;
25191;SDS011;13143;50.924;5.320;2023-01-19T08:45:31;41.55;;;21.40;;
25191;SDS011;13143;50.924;5.320;2023-01-19T08:48:01;40.35;;;20.67;;
25191;SDS011;13143;50.924;5.320;2023-01-19T08:50:29;54.03;;;22.00;;
25191;SDS011;13143;50.924;5.320;2023-01-19T08:52:56;44.38;;;22.23;;
25191;SDS011;13143;50.924;5.320;2023-01-19T08:55:23;49.22;;;22.85;;
25191;SDS011;13143;50.924;5.320;2023-01-19T08:57:53;51.50;;;22.73;;
25191;SDS011;13143;50.924;5.320;2023-01-19T09:00:21;47.60;;;22.30;;
25191;SDS011;13143;50.924;5.320;2023-01-19T09:02:48;48.78;;;22.50;;
25191;SDS011;13143;50.924;5.320;2023-01-19T09:05:15;50.10;;;22.42;;
25191;SDS011;13143;50.924;5.320;2023-01-19T09:07:42;46.83;;;23.08;;
25191;SDS011;13143;50.924;5.320;2023-01-19T09:10:09;46.88;;;23.63;;
25191;SDS011;13143;50.924;5.320;2023-01-19T09:12:35;53.67;;;25.08;;
25191;SDS011;13143;50.924;5.320;2023-01-19T09:15:01;50.15;;;23.30;;
25191;SDS011;13143;50.924;5.320;2023-01-19T09:17:26;51.92;;;24.77;;
25191;SDS011;13143;50.924;5.320;2023-01-19T09:19:52;55.75;;;24.13;;
25191;SDS011;13143;50.924;5.320;2023-01-19T09:22:18;52.88;;;23.52;;
25191;SDS011;13143;50.924;5.320;2023-01-19T09:24:43;50.35;;;23.33;;
25191;SDS011;13143;50.924;5.320;2023-01-19T09:27:09;54.90;;;24.23;;
25191;SDS011;13143;50.924;5.320;2023-01-19T09:29:34;48.03;;;23.35;;
25191;SDS011;13143;50.924;5.320;2023-01-19T09:32:00;54.50;;;24.42;;
25191;SDS011;13143;50.924;5.320;2023-01-19T09:34:26;52.17;;;23.58;;
25191;SDS011;13143;50.924;5.320;2023-01-19T09:36:52;54.72;;;24.88;;
25191;SDS011;13143;50.924;5.320;2023-01-19T09:39:17;44.80;;;23.25;;
25191;SDS011;13143;50.924;5.320;2023-01-19T09:41:48;45.88;;;23.40;;
25191;SDS011;13143;50.924;5.320;2023-01-19T09:44:27;51.53;;;22.67;;
25191;SDS011;13143;50.924;5.320;2023-01-19T09:46:56;54.97;;;24.30;;
25191;SDS011;13143;50.924;5.320;2023-01-19T09:49:32;46.28;;;23.48;;
25191;SDS011;13143;50.924;5.320;2023-01-19T09:52:02;49.45;;;25.75;;
25191;SDS011;13143;50.924;5.320;2023-01-19T09:54:28;51.17;;;24.98;;
25191;SDS011;13143;50.924;5.320;2023-01-19T09:57:11;50.67;;;23.80;;
25191;SDS011;13143;50.924;5.320;2023-01-19T09:59:38;52.00;;;23.92;;
25191;SDS011;13143;50.924;5.320;2023-01-19T10:10:16;52.45;;;24.10;;
25191;SDS011;13143;50.924;5.320;2023-01-19T10:17:53;51.30;;;25.42;;
25191;SDS011;13143;50.924;5.320;2023-01-19T10:20:34;48.70;;;25.10;;
25191;SDS011;13143;50.924;5.320;2023-01-19T10:23:29;58.03;;;25.90;;
25191;SDS011;13143;50.924;5.320;2023-01-19T10:25:58;55.15;;;24.60;;
25191;SDS011;13143;50.924;5.320;2023-01-19T10:28:29;63.10;;;27.30;;
25191;SDS011;13143;50.924;5.320;2023-01-19T10:30:55;58.20;;;25.45;;
25191;SDS011;13143;50.924;5.320;2023-01-19T10:33:21;51.47;;;24.42;;
25191;SDS011;13143;50.924;5.320;2023-01-19T10:35:47;51.03;;;24.92;;
25191;SDS011;13143;50.924;5.320;2023-01-19T10:38:13;56.22;;;24.73;;
25191;SDS011;13143;50.924;5.320;2023-01-19T10:40:48;54.05;;;25.70;;
25191;SDS011;13143;50.924;5.320;2023-01-19T10:45:58;55.45;;;24.52;;
25191;SDS011;13143;50.924;5.320;2023-01-19T10:48:24;60.95;;;25.70;;
25191;SDS011;13143;50.924;5.320;2023-01-19T10:51:00;54.40;;;26.08;;
25191;SDS011;13143;50.924;5.320;2023-01-19T10:53:27;51.75;;;24.80;;
25191;SDS011;13143;50.924;5.320;2023-01-19T10:56:15;57.05;;;26.02;;
25191;SDS011;13143;50.924;5.320;2023-01-19T10:58:45;51.33;;;24.33;;
25191;SDS011;13143;50.924;5.320;2023-01-19T11:01:24;58.92;;;25.58;;
25191;SDS011;13143;50.924;5.320;2023-01-19T11:03:51;57.53;;;26.33;;
25191;SDS011;13143;50.924;5.320;2023-01-19T11:06:25;57.90;;;25.13;;
25191;SDS011;13143;50.924;5.320;2023-01-19T11:09:08;57.13;;;25.63;;
25191;SDS011;13143;50.924;5.320;2023-01-19T11:11:43;76.75;;;26.90;;
25191;SDS011;13143;50.924;5.320;2023-01-19T11:14:20;60.78;;;27.77;;
25191;SDS011;13143;50.924;5.320;2023-01-19T11:16:49;65.10;;;28.77;;
25191;SDS011;13143;50.924;5.320;2023-01-19T11:19:25;64.65;;;28.77;;
25191;SDS011;13143;50.924;5.320;2023-01-19T11:22:06;64.90;;;28.58;;
25191;SDS011;13143;50.924;5.320;2023-01-19T11:24:45;59.42;;;26.70;;
25191;SDS011;13143;50.924;5.320;2023-01-19T11:27:11;60.20;;;25.58;;
25191;SDS011;13143;50.924;5.320;2023-01-19T11:32:34;50.50;;;21.95;;
25191;SDS011;13143;50.924;5.320;2023-01-19T11:35:01;45.35;;;21.88;;
25191;SDS011;13143;50.924;5.320;2023-01-19T11:37:46;46.45;;;21.00;;
25191;SDS011;13143;50.924;5.320;2023-01-19T11:40:14;46.88;;;21.38;;
25191;SDS011;13143;50.924;5.320;2023-01-19T11:42:40;41.35;;;20.92;;
25191;SDS011;13143;50.924;5.320;2023-01-19T11:45:12;42.15;;;20.83;;
25191;SDS011;13143;50.924;5.320;2023-01-19T11:47:43;41.05;;;20.50;;
25191;SDS011;13143;50.924;5.320;2023-01-19T11:50:12;46.55;;;20.40;;
25191;SDS011;13143;50.924;5.320;2023-01-19T11:52:47;41.13;;;20.15;;
25191;SDS011;13143;50.924;5.320;2023-01-19T11:57:48;42.25;;;20.20;;
25191;SDS011;13143;50.924;5.320;2023-01-19T12:00:21;44.25;;;19.17;;
25191;SDS011;13143;50.924;5.320;2023-01-19T12:05:49;48.88;;;19.48;;
25191;SDS011;13143;50.924;5.320;2023-01-19T12:08:21;42.47;;;19.67;;
25191;SDS011;13143;50.924;5.320;2023-01-19T12:10:52;41.83;;;20.27;;
25191;SDS011;13143;50.924;5.320;2023-01-19T12:13:20;41.17;;;18.98;;
25191;SDS011;13143;50.924;5.320;2023-01-19T12:15:49;42.75;;;19.13;;
25191;SDS011;13143;50.924;5.320;2023-01-19T12:18:47;40.80;;;18.90;;
25191;SDS011;13143;50.924;5.320;2023-01-19T12:21:31;39.25;;;18.42;;
25191;SDS011;13143;50.924;5.320;2023-01-19T12:26:41;39.50;;;18.75;;
25191;SDS011;13143;50.924;5.320;2023-01-19T12:29:12;41.25;;;19.15;;
25191;SDS011;13143;50.924;5.320;2023-01-19T12:31:44;40.22;;;18.20;;
25191;SDS011;13143;50.924;5.320;2023-01-19T12:36:49;45.92;;;17.92;;
25191;SDS011;13143;50.924;5.320;2023-01-19T12:39:16;39.50;;;18.67;;
25191;SDS011;13143;50.924;5.320;2023-01-19T12:41:45;41.08;;;19.25;;
25191;SDS011;13143;50.924;5.320;2023-01-19T12:51:43;40.03;;;19.75;;
25191;SDS011;13143;50.924;5.320;2023-01-19T12:54:15;48.40;;;20.73;;
25191;SDS011;13143;50.924;5.320;2023-01-19T12:56:45;43.33;;;20.00;;
25191;SDS011;13143;50.924;5.320;2023-01-19T12:59:20;43.90;;;20.25;;
25191;SDS011;13143;50.924;5.320;2023-01-19T13:15:58;33.90;;;17.13;;
25191;SDS011;13143;50.924;5.320;2023-01-19T13:18:48;34.58;;;16.52;;
25191;SDS011;13143;50.924;5.320;2023-01-19T13:24:14;38.70;;;17.83;;
25191;SDS011;13143;50.924;5.320;2023-01-19T13:31:46;35.70;;;15.73;;
25191;SDS011;13143;50.924;5.320;2023-01-19T13:34:26;38.70;;;16.83;;
25191;SDS011;13143;50.924;5.320;2023-01-19T13:36:55;34.50;;;15.35;;
25191;SDS011;13143;50.924;5.320;2023-01-19T13:41:54;26.27;;;13.85;;
25191;SDS011;13143;50.924;5.320;2023-01-19T13:44:27;23.60;;;9.88;;
25191;SDS011;13143;50.924;5.320;2023-01-19T13:46:56;29.27;;;12.55;;
25191;SDS011;13143;50.924;5.320;2023-01-19T13:54:36;23.67;;;11.00;;
25191;SDS011;13143;50.924;5.320;2023-01-19T13:57:28;26.25;;;10.50;;
25191;SDS011;13143;50.924;5.320;2023-01-19T14:05:24;23.63;;;10.45;;
25191;SDS011;13143;50.924;5.320;2023-01-19T14:10:31;23.98;;;11.20;;
25191;SDS011;13143;50.924;5.320;2023-01-19T14:13:02;21.83;;;11.45;;
25191;SDS011;13143;50.924;5.320;2023-01-19T14:15:49;28.38;;;10.68;;
25191;SDS011;13143;50.924;5.320;2023-01-19T14:20:55;24.38;;;11.00;;
25191;SDS011;13143;50.924;5.320;2023-01-19T14:23:46;26.88;;;11.30;;
25191;SDS011;13143;50.924;5.320;2023-01-19T14:37:21;30.95;;;11.40;;
25191;SDS011;13143;50.924;5.320;2023-01-19T14:39:54;31.02;;;11.82;;
25191;SDS011;13143;50.924;5.320;2023-01-19T14:42:36;27.42;;;12.13;;
25191;SDS011;13143;50.924;5.320;2023-01-19T14:47:40;51.05;;;13.60;;
25191;SDS011;13143;50.924;5.320;2023-01-19T14:50:17;45.42;;;14.20;;
25191;SDS011;13143;50.924;5.320;2023-01-19T14:52:47;47.55;;;14.75;;
25191;SDS011;13143;50.924;5.320;2023-01-19T14:55:19;34.00;;;13.55;;
25191;SDS011;13143;50.924;5.320;2023-01-19T14:57:48;38.67;;;13.70;;
25191;SDS011;13143;50.924;5.320;2023-01-19T15:00:17;40.90;;;13.80;;
25191;SDS011;13143;50.924;5.320;2023-01-19T15:02:44;28.10;;;12.75;;
25191;SDS011;13143;50.924;5.320;2023-01-19T15:05:11;31.75;;;12.70;;
25191;SDS011;13143;50.924;5.320;2023-01-19T15:07:37;36.03;;;14.10;;
25191;SDS011;13143;50.924;5.320;2023-01-19T15:10:09;29.67;;;12.40;;
25191;SDS011;13143;50.924;5.320;2023-01-19T15:12:41;25.08;;;12.23;;
25191;SDS011;13143;50.924;5.320;2023-01-19T15:15:11;24.50;;;10.75;;
25191;SDS011;13143;50.924;5.320;2023-01-19T15:17:42;27.67;;;10.35;;
25191;SDS011;13143;50.924;5.320;2023-01-19T15:20:18;21.42;;;10.00;;
25191;SDS011;13143;50.924;5.320;2023-01-19T15:22:45;25.50;;;9.65;;
25191;SDS011;13143;50.924;5.320;2023-01-19T15:25:12;30.02;;;9.38;;
25191;SDS011;13143;50.924;5.320;2023-01-19T15:27:39;20.92;;;9.25;;
25191;SDS011;13143;50.924;5.320;2023-01-19T15:30:11;31.67;;;10.35;;
25191;SDS011;13143;50.924;5.320;2023-01-19T15:32:37;26.00;;;10.25;;
25191;SDS011;13143;50.924;5.320;2023-01-19T15:35:11;27.50;;;11.77;;
25191;SDS011;13143;50.924;5.320;2023-01-19T15:37:41;26.85;;;10.48;;
25191;SDS011;13143;50.924;5.320;2023-01-19T15:40:07;29.65;;;11.25;;
25191;SDS011;13143;50.924;5.320;2023-01-19T15:42:33;27.42;;;11.48;;
25191;SDS011;13143;50.924;5.320;2023-01-19T15:44:59;35.45;;;11.75;;
25191;SDS011;13143;50.924;5.320;2023-01-19T15:47:25;27.02;;;11.75;;
25191;SDS011;13143;50.924;5.320;2023-01-19T15:49:51;37.58;;;12.15;;
25191;SDS011;13143;50.924;5.320;2023-01-19T15:52:17;28.27;;;11.05;;
25191;SDS011;13143;50.924;5.320;2023-01-19T15:54:42;27.55;;;10.60;;
25191;SDS011;13143;50.924;5.320;2023-01-19T15:57:09;22.08;;;11.35;;
25191;SDS011;13143;50.924;5.320;2023-01-19T15:59:35;23.77;;;10.55;;
25191;SDS011;13143;50.924;5.320;2023-01-19T16:02:00;31.00;;;11.38;;
25191;SDS011;13143;50.924;5.320;2023-01-19T16:04:27;21.80;;;11.30;;
25191;SDS011;13143;50.924;5.320;2023-01-19T16:06:52;24.13;;;11.30;;
25191;SDS011;13143;50.924;5.320;2023-01-19T16:09:18;21.40;;;11.15;;
25191;SDS011;13143;50.924;5.320;2023-01-19T16:11:44;28.10;;;12.52;;